sensor_id;sensor_type;location;lat;lon;timestamp;pressure;altitude;pressure_sealevel;temperature;humidity
78623;BME280;67943;54.412;9.502;2023-04-06T00:01:23;101880.41;;;3.24;58.08
78623;BME280;67943;54.412;9.502;2023-04-06T00:06:25;101879.38;;;3.16;58.60
78623;BME280;67943;54.412;9.502;2023-04-06T00:11:27;101871.41;;;3.10;57.88
78623;BME280;67943;54.412;9.502;2023-04-06T00:16:29;101856.03;;;2.86;58.10
78623;BME280;67943;54.412;9.502;2023-04-06T00:21:31;101860.84;;;2.72;59.10
78623;BME280;67943;54.412;9.502;2023-04-06T00:26:32;101861.19;;;2.53;59.60
78623;BME280;67943;54.412;9.502;2023-04-06T00:31:35;101860.84;;;2.41;60.66
78623;BME280;67943;54.412;9.502;2023-04-06T00:36:37;101863.38;;;2.40;60.50
78623;BME280;67943;54.412;9.502;2023-04-06T00:41:38;101853.63;;;2.31;60.87
78623;BME280;67943;54.412;9.502;2023-04-06T00:46:41;101850.16;;;2.32;61.38
78623;BME280;67943;54.412;9.502;2023-04-06T00:51:43;101851.97;;;2.34;60.64
78623;BME280;67943;54.412;9.502;2023-04-06T00:56:44;101845.53;;;2.20;60.45
78623;BME280;67943;54.412;9.502;2023-04-06T01:01:47;101838.63;;;1.92;60.55
78623;BME280;67943;54.412;9.502;2023-04-06T01:06:49;101837.56;;;1.86;61.96
78623;BME280;67943;54.412;9.502;2023-04-06T01:11:50;101837.63;;;1.87;62.27
78623;BME280;67943;54.412;9.502;2023-04-06T01:16:53;101829.72;;;1.84;61.37
78623;BME280;67943;54.412;9.502;2023-04-06T01:21:54;101825.22;;;1.79;61.43
78623;BME280;67943;54.412;9.502;2023-04-06T01:26:57;101822.03;;;1.59;61.49
78623;BME280;67943;54.412;9.502;2023-04-06T01:31:59;101816.06;;;1.34;62.66
78623;BME280;67943;54.412;9.502;2023-04-06T01:37:00;101810.13;;;1.37;62.75
78623;BME280;67943;54.412;9.502;2023-04-06T01:42:03;101818.53;;;1.30;63.48
78623;BME280;67943;54.412;9.502;2023-04-06T01:47:05;101819.56;;;1.35;63.46
78623;BME280;67943;54.412;9.502;2023-04-06T01:52:06;101822.78;;;1.28;62.11
78623;BME280;67943;54.412;9.502;2023-04-06T01:57:09;101809.22;;;1.10;62.70
78623;BME280;67943;54.412;9.502;2023-04-06T02:02:11;101807.91;;;0.97;63.44
78623;BME280;67943;54.412;9.502;2023-04-06T02:07:13;101805.59;;;1.05;63.44
78623;BME280;67943;54.412;9.502;2023-04-06T02:12:16;101797.44;;;0.94;63.04
78623;BME280;67943;54.412;9.502;2023-04-06T02:17:17;101807.47;;;0.83;63.58
78623;BME280;67943;54.412;9.502;2023-04-06T02:22:19;101808.19;;;0.79;63.61
78623;BME280;67943;54.412;9.502;2023-04-06T02:27:22;101801.09;;;0.74;63.45
78623;BME280;67943;54.412;9.502;2023-04-06T02:32:23;101819.88;;;0.68;63.48
78623;BME280;67943;54.412;9.502;2023-04-06T02:37:25;101810.81;;;0.55;63.90
78623;BME280;67943;54.412;9.502;2023-04-06T02:42:27;101799.59;;;0.55;64.20
78623;BME280;67943;54.412;9.502;2023-04-06T02:47:29;101798.00;;;0.60;65.30
78623;BME280;67943;54.412;9.502;2023-04-06T02:52:31;101799.81;;;0.62;65.75
78623;BME280;67943;54.412;9.502;2023-04-06T02:57:34;101794.88;;;0.68;65.45
78623;BME280;67943;54.412;9.502;2023-04-06T03:02:36;101798.38;;;0.71;66.32
78623;BME280;67943;54.412;9.502;2023-04-06T03:07:37;101792.53;;;0.76;64.92
78623;BME280;67943;54.412;9.502;2023-04-06T03:12:40;101796.75;;;0.73;65.27
78623;BME280;67943;54.412;9.502;2023-04-06T03:17:41;101787.81;;;0.64;65.08
78623;BME280;67943;54.412;9.502;2023-04-06T03:22:43;101785.13;;;0.61;65.09
78623;BME280;67943;54.412;9.502;2023-04-06T03:27:46;101787.41;;;0.52;64.35
78623;BME280;67943;54.412;9.502;2023-04-06T03:32:47;101787.13;;;0.45;64.97
78623;BME280;67943;54.412;9.502;2023-04-06T03:37:49;101788.63;;;0.38;64.43
78623;BME280;67943;54.412;9.502;2023-04-06T03:42:51;101802.16;;;0.31;64.87
78623;BME280;67943;54.412;9.502;2023-04-06T03:47:53;101796.78;;;0.25;64.97
78623;BME280;67943;54.412;9.502;2023-04-06T03:52:55;101797.63;;;0.24;65.21
78623;BME280;67943;54.412;9.502;2023-04-06T03:57:57;101801.84;;;0.22;65.29
78623;BME280;67943;54.412;9.502;2023-04-06T04:02:59;101799.19;;;0.20;65.94
78623;BME280;67943;54.412;9.502;2023-04-06T04:08:02;101804.66;;;0.28;67.51
78623;BME280;67943;54.412;9.502;2023-04-06T04:13:04;101808.44;;;0.38;68.28
78623;BME280;67943;54.412;9.502;2023-04-06T04:18:06;101800.03;;;0.43;68.45
78623;BME280;67943;54.412;9.502;2023-04-06T04:23:07;101805.41;;;0.49;68.63
78623;BME280;67943;54.412;9.502;2023-04-06T04:28:10;101796.13;;;0.54;68.35
78623;BME280;67943;54.412;9.502;2023-04-06T04:33:11;101808.28;;;0.57;68.60
78623;BME280;67943;54.412;9.502;2023-04-06T04:38:13;101809.19;;;0.59;68.92
78623;BME280;67943;54.412;9.502;2023-04-06T04:43:16;101804.81;;;0.56;69.28
78623;BME280;67943;54.412;9.502;2023-04-06T04:48:17;101803.13;;;0.58;69.69
78623;BME280;67943;54.412;9.502;2023-04-06T04:53:19;101804.91;;;0.59;70.23
78623;BME280;67943;54.412;9.502;2023-04-06T04:58:21;101796.22;;;0.57;70.75
78623;BME280;67943;54.412;9.502;2023-04-06T05:03:24;101800.59;;;0.60;70.98
78623;BME280;67943;54.412;9.502;2023-04-06T05:08:26;101798.06;;;0.61;71.57
78623;BME280;67943;54.412;9.502;2023-04-06T05:13:30;101802.41;;;0.62;72.10
78623;BME280;67943;54.412;9.502;2023-04-06T05:18:32;101799.94;;;0.65;72.49
78623;BME280;67943;54.412;9.502;2023-04-06T05:23:33;101795.75;;;0.69;72.56
78623;BME280;67943;54.412;9.502;2023-04-06T05:28:36;101794.91;;;0.70;72.58
78623;BME280;67943;54.412;9.502;2023-04-06T05:33:38;101796.75;;;0.73;72.79
78623;BME280;67943;54.412;9.502;2023-04-06T05:38:39;101803.94;;;0.81;72.59
78623;BME280;67943;54.412;9.502;2023-04-06T05:43:42;101798.34;;;0.94;72.79
78623;BME280;67943;54.412;9.502;2023-04-06T05:48:43;101796.94;;;1.04;73.07
78623;BME280;67943;54.412;9.502;2023-04-06T05:53:45;101802.59;;;1.19;73.26
78623;BME280;67943;54.412;9.502;2023-04-06T05:58:48;101805.91;;;1.41;73.19
78623;BME280;67943;54.412;9.502;2023-04-06T06:03:50;101807.34;;;1.59;72.78
78623;BME280;67943;54.412;9.502;2023-04-06T06:08:51;101806.03;;;1.74;72.73
78623;BME280;67943;54.412;9.502;2023-04-06T06:13:54;101810.44;;;2.04;72.34
78623;BME280;67943;54.412;9.502;2023-04-06T06:18:56;101810.06;;;2.21;71.35
78623;BME280;67943;54.412;9.502;2023-04-06T06:23:57;101815.44;;;2.27;71.80
78623;BME280;67943;54.412;9.502;2023-04-06T06:29:00;101807.38;;;2.49;70.92
78623;BME280;67943;54.412;9.502;2023-04-06T06:34:01;101806.41;;;2.77;69.96
78623;BME280;67943;54.412;9.502;2023-04-06T06:39:03;101807.84;;;2.99;69.51
78623;BME280;67943;54.412;9.502;2023-04-06T06:44:05;101801.44;;;3.21;68.63
78623;BME280;67943;54.412;9.502;2023-04-06T06:49:07;101801.09;;;3.42;67.89
78623;BME280;67943;54.412;9.502;2023-04-06T06:54:08;101793.94;;;3.70;67.32
78623;BME280;67943;54.412;9.502;2023-04-06T06:59:11;101797.78;;;3.88;66.55
78623;BME280;67943;54.412;9.502;2023-04-06T07:04:13;101792.97;;;4.06;66.73
78623;BME280;67943;54.412;9.502;2023-04-06T07:09:14;101794.53;;;4.41;65.39
78623;BME280;67943;54.412;9.502;2023-04-06T07:14:17;101793.13;;;4.57;64.42
78623;BME280;67943;54.412;9.502;2023-04-06T07:19:18;101799.13;;;5.01;63.42
78623;BME280;67943;54.412;9.502;2023-04-06T07:24:20;101792.81;;;5.41;61.65
78623;BME280;67943;54.412;9.502;2023-04-06T07:29:23;101792.06;;;5.50;61.59
78623;BME280;67943;54.412;9.502;2023-04-06T07:34:24;101780.97;;;5.65;61.51
78623;BME280;67943;54.412;9.502;2023-04-06T07:39:26;101790.22;;;6.00;60.26
78623;BME280;67943;54.412;9.502;2023-04-06T07:44:28;101785.34;;;6.29;57.63
78623;BME280;67943;54.412;9.502;2023-04-06T07:49:30;101773.31;;;6.47;57.81
78623;BME280;67943;54.412;9.502;2023-04-06T07:54:33;101781.59;;;6.86;55.29
78623;BME280;67943;54.412;9.502;2023-04-06T07:59:35;101773.03;;;7.08;55.64
78623;BME280;67943;54.412;9.502;2023-04-06T08:04:37;101768.94;;;7.41;53.75
78623;BME280;67943;54.412;9.502;2023-04-06T08:09:38;101776.16;;;7.77;52.42
78623;BME280;67943;54.412;9.502;2023-04-06T08:14:41;101766.63;;;7.99;51.65
78623;BME280;67943;54.412;9.502;2023-04-06T08:19:43;101769.34;;;8.22;51.10
78623;BME280;67943;54.412;9.502;2023-04-06T08:24:45;101767.72;;;8.46;49.86
78623;BME280;67943;54.412;9.502;2023-04-06T08:29:48;101773.00;;;8.69;49.05
78623;BME280;67943;54.412;9.502;2023-04-06T08:34:54;101768.66;;;9.11;49.56
78623;BME280;67943;54.412;9.502;2023-04-06T08:39:55;101752.69;;;10.10;43.65
78623;BME280;67943;54.412;9.502;2023-04-06T08:44:59;101757.69;;;10.60;42.13
78623;BME280;67943;54.412;9.502;2023-04-06T08:50:03;101751.84;;;11.30;40.08
78623;BME280;67943;54.412;9.502;2023-04-06T08:55:06;101753.25;;;12.41;36.51
78623;BME280;67943;54.412;9.502;2023-04-06T09:00:11;101752.19;;;12.53;37.23
78623;BME280;67943;54.412;9.502;2023-04-06T09:05:12;101749.19;;;13.79;34.18
78623;BME280;67943;54.412;9.502;2023-04-06T09:10:16;101745.50;;;14.28;32.83
78623;BME280;67943;54.412;9.502;2023-04-06T09:15:20;101745.25;;;14.78;32.00
78623;BME280;67943;54.412;9.502;2023-04-06T09:20:23;101737.72;;;15.31;30.27
78623;BME280;67943;54.412;9.502;2023-04-06T09:25:26;101736.66;;;15.72;29.78
78623;BME280;67943;54.412;9.502;2023-04-06T09:30:29;101728.41;;;15.83;28.92
78623;BME280;67943;54.412;9.502;2023-04-06T09:35:31;101732.72;;;16.16;28.87
78623;BME280;67943;54.412;9.502;2023-04-06T09:40:33;101732.16;;;16.35;28.04
78623;BME280;67943;54.412;9.502;2023-04-06T09:45:36;101729.13;;;16.17;28.07
78623;BME280;67943;54.412;9.502;2023-04-06T09:50:38;101720.13;;;17.32;27.28
78623;BME280;67943;54.412;9.502;2023-04-06T09:55:42;101715.59;;;18.75;25.20
78623;BME280;67943;54.412;9.502;2023-04-06T10:00:48;101720.72;;;19.83;24.10
78623;BME280;67943;54.412;9.502;2023-04-06T10:05:55;101708.72;;;20.49;22.53
78623;BME280;67943;54.412;9.502;2023-04-06T10:10:59;101712.69;;;20.41;23.19
78623;BME280;67943;54.412;9.502;2023-04-06T10:16:03;101707.63;;;21.07;21.78
78623;BME280;67943;54.412;9.502;2023-04-06T10:21:08;101706.50;;;20.94;22.51
78623;BME280;67943;54.412;9.502;2023-04-06T10:26:13;101696.88;;;19.60;23.02
78623;BME280;67943;54.412;9.502;2023-04-06T10:31:25;101685.81;;;20.97;22.17
78623;BME280;67943;54.412;9.502;2023-04-06T10:36:28;101696.25;;;22.04;20.70
78623;BME280;67943;54.412;9.502;2023-04-06T10:41:33;101688.50;;;23.80;19.96
78623;BME280;67943;54.412;9.502;2023-04-06T10:46:36;101679.97;;;24.43;18.59
78623;BME280;67943;54.412;9.502;2023-04-06T10:51:38;101680.78;;;25.50;17.31
78623;BME280;67943;54.412;9.502;2023-04-06T10:56:40;101676.97;;;26.03;15.71
78623;BME280;67943;54.412;9.502;2023-04-06T11:01:45;101674.97;;;26.43;15.61
78623;BME280;67943;54.412;9.502;2023-04-06T11:06:47;101683.75;;;24.27;16.92
78623;BME280;67943;54.412;9.502;2023-04-06T11:11:50;101686.06;;;24.18;17.56
78623;BME280;67943;54.412;9.502;2023-04-06T11:16:53;101684.09;;;25.03;17.16
78623;BME280;67943;54.412;9.502;2023-04-06T11:21:55;101666.06;;;25.68;16.05
78623;BME280;67943;54.412;9.502;2023-04-06T11:26:58;101676.25;;;24.85;17.36
78623;BME280;67943;54.412;9.502;2023-04-06T11:32:03;101679.53;;;24.22;17.53
78623;BME280;67943;54.412;9.502;2023-04-06T11:37:08;101665.41;;;25.39;17.23
78623;BME280;67943;54.412;9.502;2023-04-06T11:42:09;101661.63;;;26.77;16.38
78623;BME280;67943;54.412;9.502;2023-04-06T11:47:12;101653.84;;;26.96;15.93
78623;BME280;67943;54.412;9.502;2023-04-06T11:52:16;101672.34;;;27.71;15.13
78623;BME280;67943;54.412;9.502;2023-04-06T11:57:18;101658.94;;;26.16;16.47
78623;BME280;67943;54.412;9.502;2023-04-06T12:02:22;101662.75;;;27.09;16.07
78623;BME280;67943;54.412;9.502;2023-04-06T12:07:23;101660.97;;;27.54;15.79
78623;BME280;67943;54.412;9.502;2023-04-06T12:12:25;101649.59;;;27.62;15.26
78623;BME280;67943;54.412;9.502;2023-04-06T12:17:28;101640.78;;;27.14;15.85
78623;BME280;67943;54.412;9.502;2023-04-06T12:22:29;101643.38;;;26.91;16.24
78623;BME280;67943;54.412;9.502;2023-04-06T12:27:31;101630.34;;;26.14;16.38
78623;BME280;67943;54.412;9.502;2023-04-06T12:32:34;101630.78;;;27.61;15.24
78623;BME280;67943;54.412;9.502;2023-04-06T12:37:35;101625.56;;;28.02;15.50
78623;BME280;67943;54.412;9.502;2023-04-06T12:42:38;101624.22;;;26.95;15.49
78623;BME280;67943;54.412;9.502;2023-04-06T12:47:41;101623.53;;;25.72;16.13
78623;BME280;67943;54.412;9.502;2023-04-06T12:52:43;101616.91;;;25.39;16.56
78623;BME280;67943;54.412;9.502;2023-04-06T12:57:45;101602.94;;;25.83;16.30
78623;BME280;67943;54.412;9.502;2023-04-06T13:02:47;101608.66;;;25.53;16.72
78623;BME280;67943;54.412;9.502;2023-04-06T13:07:49;101597.06;;;27.31;16.02
78623;BME280;67943;54.412;9.502;2023-04-06T13:12:51;101597.69;;;25.18;16.63
78623;BME280;67943;54.412;9.502;2023-04-06T13:17:53;101583.91;;;22.46;19.22
78623;BME280;67943;54.412;9.502;2023-04-06T13:22:55;101587.22;;;20.38;20.98
78623;BME280;67943;54.412;9.502;2023-04-06T13:27:56;101576.28;;;18.70;22.59
78623;BME280;67943;54.412;9.502;2023-04-06T13:33:00;101583.00;;;17.23;24.00
78623;BME280;67943;54.412;9.502;2023-04-06T13:38:01;101581.81;;;17.32;24.43
78623;BME280;67943;54.412;9.502;2023-04-06T13:43:03;101586.31;;;17.05;23.89
78623;BME280;67943;54.412;9.502;2023-04-06T13:48:06;101592.41;;;16.31;25.46
78623;BME280;67943;54.412;9.502;2023-04-06T13:53:07;101568.75;;;16.49;25.39
78623;BME280;67943;54.412;9.502;2023-04-06T13:58:09;101584.72;;;16.48;25.92
78623;BME280;67943;54.412;9.502;2023-04-06T14:03:12;101581.16;;;16.23;26.09
78623;BME280;67943;54.412;9.502;2023-04-06T14:08:13;101584.41;;;16.04;25.82
78623;BME280;67943;54.412;9.502;2023-04-06T14:13:15;101563.81;;;16.12;25.76
78623;BME280;67943;54.412;9.502;2023-04-06T14:18:18;101562.31;;;16.30;26.13
78623;BME280;67943;54.412;9.502;2023-04-06T14:23:20;101572.78;;;16.08;26.09
78623;BME280;67943;54.412;9.502;2023-04-06T14:28:21;101566.28;;;15.89;26.10
78623;BME280;67943;54.412;9.502;2023-04-06T14:33:25;101558.81;;;15.74;26.32
78623;BME280;67943;54.412;9.502;2023-04-06T14:38:26;101573.34;;;15.90;26.57
78623;BME280;67943;54.412;9.502;2023-04-06T14:43:28;101556.31;;;15.97;26.66
78623;BME280;67943;54.412;9.502;2023-04-06T14:48:31;101561.19;;;15.83;26.20
78623;BME280;67943;54.412;9.502;2023-04-06T14:53:33;101553.94;;;15.88;26.42
78623;BME280;67943;54.412;9.502;2023-04-06T14:58:34;101548.03;;;15.19;27.19
78623;BME280;67943;54.412;9.502;2023-04-06T15:03:37;101548.84;;;15.52;27.18
78623;BME280;67943;54.412;9.502;2023-04-06T15:08:40;101542.16;;;15.39;27.15
78623;BME280;67943;54.412;9.502;2023-04-06T15:13:41;101538.69;;;15.67;27.02
78623;BME280;67943;54.412;9.502;2023-04-06T15:18:44;101537.91;;;15.91;27.23
78623;BME280;67943;54.412;9.502;2023-04-06T15:23:46;101538.28;;;15.80;27.17
78623;BME280;67943;54.412;9.502;2023-04-06T15:28:47;101525.44;;;15.95;26.83
78623;BME280;67943;54.412;9.502;2023-04-06T15:33:50;101531.31;;;15.76;27.55
78623;BME280;67943;54.412;9.502;2023-04-06T15:38:52;101527.81;;;15.76;27.40
78623;BME280;67943;54.412;9.502;2023-04-06T15:43:53;101534.22;;;15.69;27.52
78623;BME280;67943;54.412;9.502;2023-04-06T15:48:56;101521.97;;;15.34;27.63
78623;BME280;67943;54.412;9.502;2023-04-06T15:53:58;101521.13;;;15.33;27.64
78623;BME280;67943;54.412;9.502;2023-04-06T15:58:59;101521.03;;;15.36;27.67
78623;BME280;67943;54.412;9.502;2023-04-06T16:04:06;101521.94;;;15.35;28.35
78623;BME280;67943;54.412;9.502;2023-04-06T16:09:07;101526.72;;;15.53;27.66
78623;BME280;67943;54.412;9.502;2023-04-06T16:14:09;101516.97;;;15.25;28.05
78623;BME280;67943;54.412;9.502;2023-04-06T16:19:12;101530.88;;;15.02;28.45
78623;BME280;67943;54.412;9.502;2023-04-06T16:24:13;101529.03;;;15.04;28.26
78623;BME280;67943;54.412;9.502;2023-04-06T16:29:15;101531.47;;;14.80;28.64
78623;BME280;67943;54.412;9.502;2023-04-06T16:34:18;101524.97;;;14.60;28.88
78623;BME280;67943;54.412;9.502;2023-04-06T16:39:20;101530.09;;;14.67;28.70
78623;BME280;67943;54.412;9.502;2023-04-06T16:44:21;101526.44;;;14.37;29.46
78623;BME280;67943;54.412;9.502;2023-04-06T16:49:24;101522.44;;;14.19;29.52
78623;BME280;67943;54.412;9.502;2023-04-06T16:54:26;101520.63;;;14.22;29.48
78623;BME280;67943;54.412;9.502;2023-04-06T16:59:27;101517.63;;;14.01;29.80
78623;BME280;67943;54.412;9.502;2023-04-06T17:04:30;101529.63;;;13.79;30.61
78623;BME280;67943;54.412;9.502;2023-04-06T17:09:32;101527.38;;;13.61;30.59
78623;BME280;67943;54.412;9.502;2023-04-06T17:14:33;101530.25;;;13.51;30.79
78623;BME280;67943;54.412;9.502;2023-04-06T17:19:36;101532.66;;;13.22;31.45
78623;BME280;67943;54.412;9.502;2023-04-06T17:24:37;101535.22;;;13.25;31.46
78623;BME280;67943;54.412;9.502;2023-04-06T17:29:39;101541.16;;;12.92;32.42
78623;BME280;67943;54.412;9.502;2023-04-06T17:34:42;101543.13;;;12.80;32.73
78623;BME280;67943;54.412;9.502;2023-04-06T17:39:43;101552.53;;;12.46;33.66
78623;BME280;67943;54.412;9.502;2023-04-06T17:44:45;101556.34;;;12.30;34.13
78623;BME280;67943;54.412;9.502;2023-04-06T17:49:49;101559.06;;;12.25;34.21
78623;BME280;67943;54.412;9.502;2023-04-06T17:54:51;101568.28;;;11.98;34.97
78623;BME280;67943;54.412;9.502;2023-04-06T17:59:52;101572.06;;;11.82;35.44
78623;BME280;67943;54.412;9.502;2023-04-06T18:04:55;101578.16;;;11.84;35.53
78623;BME280;67943;54.412;9.502;2023-04-06T18:09:58;101583.63;;;11.69;35.50
78623;BME280;67943;54.412;9.502;2023-04-06T18:14:59;101592.63;;;11.53;35.72
78623;BME280;67943;54.412;9.502;2023-04-06T18:20:03;101591.16;;;11.27;36.32
78623;BME280;67943;54.412;9.502;2023-04-06T18:25:05;101594.84;;;11.14;36.59
78623;BME280;67943;54.412;9.502;2023-04-06T18:30:08;101604.59;;;11.06;36.68
78623;BME280;67943;54.412;9.502;2023-04-06T18:35:13;101611.75;;;10.95;37.11
78623;BME280;67943;54.412;9.502;2023-04-06T18:40:32;101620.63;;;10.83;41.06
78623;BME280;67943;54.412;9.502;2023-04-06T18:45:35;101620.00;;;10.54;43.35
78623;BME280;67943;54.412;9.502;2023-04-06T18:50:39;101629.00;;;10.27;45.03
78623;BME280;67943;54.412;9.502;2023-04-06T18:55:40;101632.53;;;10.13;46.01
78623;BME280;67943;54.412;9.502;2023-04-06T19:00:44;101630.03;;;9.94;46.84
78623;BME280;67943;54.412;9.502;2023-04-06T19:05:47;101645.03;;;9.78;47.56
78623;BME280;67943;54.412;9.502;2023-04-06T19:10:48;101640.72;;;9.65;48.00
78623;BME280;67943;54.412;9.502;2023-04-06T19:15:50;101643.41;;;9.45;48.57
78623;BME280;67943;54.412;9.502;2023-04-06T19:20:53;101645.19;;;9.32;48.97
78623;BME280;67943;54.412;9.502;2023-04-06T19:25:54;101649.63;;;9.17;49.23
78623;BME280;67943;54.412;9.502;2023-04-06T19:30:56;101642.66;;;8.96;49.72
78623;BME280;67943;54.412;9.502;2023-04-06T19:35:59;101657.56;;;8.75;49.77
78623;BME280;67943;54.412;9.502;2023-04-06T19:41:01;101661.06;;;8.56;50.22
78623;BME280;67943;54.412;9.502;2023-04-06T19:46:03;101657.56;;;8.53;50.42
78623;BME280;67943;54.412;9.502;2023-04-06T19:51:06;101661.94;;;8.37;50.94
78623;BME280;67943;54.412;9.502;2023-04-06T19:56:08;101669.75;;;8.28;51.01
78623;BME280;67943;54.412;9.502;2023-04-06T20:01:10;101663.56;;;8.10;51.34
78623;BME280;67943;54.412;9.502;2023-04-06T20:06:13;101673.19;;;8.05;51.65
78623;BME280;67943;54.412;9.502;2023-04-06T20:11:15;101663.53;;;7.91;52.02
78623;BME280;67943;54.412;9.502;2023-04-06T20:16:17;101665.25;;;7.87;52.34
78623;BME280;67943;54.412;9.502;2023-04-06T20:21:20;101666.09;;;7.74;52.63
78623;BME280;67943;54.412;9.502;2023-04-06T20:26:21;101668.66;;;7.60;53.25
78623;BME280;67943;54.412;9.502;2023-04-06T20:31:24;101666.00;;;7.56;53.53
78623;BME280;67943;54.412;9.502;2023-04-06T20:36:29;101665.97;;;7.47;53.67
78623;BME280;67943;54.412;9.502;2023-04-06T20:41:30;101660.69;;;7.37;54.05
78623;BME280;67943;54.412;9.502;2023-04-06T20:46:32;101665.88;;;7.31;54.41
78623;BME280;67943;54.412;9.502;2023-04-06T20:51:34;101665.03;;;7.32;54.20
78623;BME280;67943;54.412;9.502;2023-04-06T20:56:36;101658.00;;;7.25;54.42
78623;BME280;67943;54.412;9.502;2023-04-06T21:01:37;101662.28;;;7.13;54.76
78623;BME280;67943;54.412;9.502;2023-04-06T21:06:40;101652.66;;;7.07;54.74
78623;BME280;67943;54.412;9.502;2023-04-06T21:11:42;101647.38;;;7.01;54.68
78623;BME280;67943;54.412;9.502;2023-04-06T21:16:43;101649.09;;;6.99;54.55
78623;BME280;67943;54.412;9.502;2023-04-06T21:21:46;101656.97;;;6.99;54.29
78623;BME280;67943;54.412;9.502;2023-04-06T21:26:48;101646.44;;;6.87;54.28
78623;BME280;67943;54.412;9.502;2023-04-06T21:31:49;101653.34;;;6.82;54.05
78623;BME280;67943;54.412;9.502;2023-04-06T21:36:52;101654.25;;;6.85;53.61
78623;BME280;67943;54.412;9.502;2023-04-06T21:41:53;101659.47;;;6.82;53.49
78623;BME280;67943;54.412;9.502;2023-04-06T21:46:55;101655.94;;;6.77;53.36
78623;BME280;67943;54.412;9.502;2023-04-06T21:51:58;101648.97;;;6.79;53.09
78623;BME280;67943;54.412;9.502;2023-04-06T21:57:00;101653.31;;;6.75;53.11
78623;BME280;67943;54.412;9.502;2023-04-06T22:02:02;101646.28;;;6.71;53.22
78623;BME280;67943;54.412;9.502;2023-04-06T22:07:04;101637.59;;;6.72;52.97
78623;BME280;67943;54.412;9.502;2023-04-06T22:12:06;101639.34;;;6.73;52.73
78623;BME280;67943;54.412;9.502;2023-04-06T22:17:07;101642.78;;;6.69;52.60
78623;BME280;67943;54.412;9.502;2023-04-06T22:22:10;101639.28;;;6.69;52.44
78623;BME280;67943;54.412;9.502;2023-04-06T22:27:11;101647.97;;;6.60;52.84
78623;BME280;67943;54.412;9.502;2023-04-06T22:32:13;101632.22;;;6.54;52.68
78623;BME280;67943;54.412;9.502;2023-04-06T22:37:16;101644.44;;;6.57;52.50
78623;BME280;67943;54.412;9.502;2023-04-06T22:42:17;101653.13;;;6.54;52.62
78623;BME280;67943;54.412;9.502;2023-04-06T22:47:18;101642.59;;;6.45;52.73
78623;BME280;67943;54.412;9.502;2023-04-06T22:52:21;101646.13;;;6.50;52.46
78623;BME280;67943;54.412;9.502;2023-04-06T22:57:23;101654.00;;;6.53;52.30
78623;BME280;67943;54.412;9.502;2023-04-06T23:02:24;101654.84;;;6.49;52.13
78623;BME280;67943;54.412;9.502;2023-04-06T23:07:27;101659.16;;;6.46;52.03
78623;BME280;67943;54.412;9.502;2023-04-06T23:12:31;101656.59;;;6.50;51.62
78623;BME280;67943;54.412;9.502;2023-04-06T23:17:32;101653.03;;;6.42;51.71
78623;BME280;67943;54.412;9.502;2023-04-06T23:22:35;101653.84;;;6.35;51.89
78623;BME280;67943;54.412;9.502;2023-04-06T23:27:36;101656.44;;;6.36;51.52
78623;BME280;67943;54.412;9.502;2023-04-06T23:32:38;101661.72;;;6.41;51.24
78623;BME280;67943;54.412;9.502;2023-04-06T23:37:40;101663.41;;;6.33;51.31
78623;BME280;67943;54.412;9.502;2023-04-06T23:42:42;101660.75;;;6.30;51.08
78623;BME280;67943;54.412;9.502;2023-04-06T23:47:43;101671.19;;;6.27;51.44
78623;BME280;67943;54.412;9.502;2023-04-06T23:52:47;101665.13;;;6.31;51.17
78623;BME280;67943;54.412;9.502;2023-04-06T23:57:48;101671.19;;;6.28;51.06
